KJKL

Julian Carroll Airport

Jackson, Kentucky, USA
METAR KJKL 230453Z AUTO 21003KT 10SM CLR 09/03 A3019 RMK AO2 SLP222 T00890033 401780006
Observed Flight Rules
Oct-23 @ 04:53 UTC (26 minutes ago) Visual Flight Rules
Wind Visibility Clouds
210° at 3 knots 10 miles
  • Clear skies
Temperatures Readings
Current 9°C / 48°F
Dewpoint 3°C / 37°F
Humidity 66%
Altimeter 30.19" Hg
Pressure 1022.2 hPa
Elevation 416
METAR KJKL 230453Z AUTO 21003KT 10SM CLR 09/03 A3019 RMK AO2 SLP222 T00890033 401780006
Observed Flight Rules
Oct-23 @ 04:53 UTC
(26 minutes ago)
VFR
Wind Visibility
210° at 3 knots 10 miles
Clouds
  • Clear skies
Temperature Dewpoint
9°C / 48°F 3°C / 37°F
Humidity Altimeter Pressure
66% 30.19" Hg 1022.2 hPa